createdAt,value
2017-07-21T00:00:44.406Z,0
2017-07-21T00:01:45.784Z,0
2017-07-21T00:02:47.168Z,0
2017-07-21T00:03:48.545Z,0
2017-07-21T00:04:49.923Z,0
2017-07-21T00:05:51.293Z,0
2017-07-21T00:06:52.683Z,0
2017-07-21T00:07:54.067Z,0
2017-07-21T00:08:55.437Z,0
2017-07-21T00:09:56.813Z,0
2017-07-21T00:10:58.186Z,0
2017-07-21T00:11:59.561Z,0
2017-07-21T00:13:01.732Z,0
2017-07-21T00:14:03.113Z,0
2017-07-21T00:15:04.487Z,0
2017-07-21T00:16:05.867Z,0
2017-07-21T00:17:08.189Z,0
2017-07-21T00:18:09.599Z,0
2017-07-21T00:19:10.971Z,0
2017-07-21T00:20:12.354Z,0
2017-07-21T00:21:13.737Z,0
2017-07-21T00:22:15.120Z,0
2017-07-21T00:23:16.490Z,0
2017-07-21T00:24:17.863Z,0
2017-07-21T00:25:19.248Z,0
2017-07-21T00:26:20.628Z,0
2017-07-21T00:27:22.003Z,0
2017-07-21T00:28:23.390Z,0
2017-07-21T00:29:24.775Z,0
2017-07-21T00:30:26.144Z,0
2017-07-21T00:31:27.523Z,0
2017-07-21T00:32:28.895Z,0
2017-07-21T00:33:30.282Z,0
2017-07-21T00:34:31.660Z,0
2017-07-21T00:35:33.037Z,0
2017-07-21T00:36:34.411Z,0
2017-07-21T00:37:35.796Z,0
2017-07-21T00:38:37.170Z,0
2017-07-21T00:39:38.544Z,0
2017-07-21T00:40:39.922Z,0
2017-07-21T00:41:41.303Z,0
2017-07-21T00:42:42.689Z,0
2017-07-21T00:43:44.058Z,0
2017-07-21T00:44:45.440Z,0
2017-07-21T00:45:46.810Z,0
2017-07-21T00:46:48.184Z,0
2017-07-21T00:47:49.570Z,0
2017-07-21T00:48:50.946Z,0
2017-07-21T00:49:52.326Z,0
2017-07-21T00:50:53.711Z,0
2017-07-21T00:51:55.080Z,0
2017-07-21T00:52:56.471Z,0
2017-07-21T00:53:57.840Z,0
2017-07-21T00:54:59.220Z,0
2017-07-21T00:56:00.603Z,0
2017-07-21T00:57:01.984Z,0
2017-07-21T00:58:03.357Z,0
2017-07-21T00:59:04.728Z,0
2017-07-21T01:00:06.113Z,0
2017-07-21T01:01:07.490Z,0
2017-07-21T01:02:08.864Z,0
2017-07-21T01:03:10.252Z,0
2017-07-21T01:04:11.632Z,0
2017-07-21T01:05:13.002Z,0
2017-07-21T01:06:14.375Z,0
2017-07-21T01:07:15.753Z,0
2017-07-21T01:08:17.140Z,0
2017-07-21T01:09:18.518Z,0
2017-07-21T01:10:19.894Z,0
2017-07-21T01:11:21.279Z,0
2017-07-21T01:12:22.659Z,0
2017-07-21T01:13:24.032Z,0
2017-07-21T01:14:25.405Z,0
2017-07-21T01:15:26.790Z,0
2017-07-21T01:16:28.170Z,0
2017-07-21T01:17:29.542Z,0
2017-07-21T01:18:30.919Z,0
2017-07-21T01:19:32.295Z,0
2017-07-21T01:20:33.678Z,0
2017-07-21T01:21:35.049Z,0
2017-07-21T01:22:36.423Z,0
2017-07-21T01:23:37.809Z,0
2017-07-21T01:24:39.189Z,0
2017-07-21T01:25:40.575Z,0
2017-07-21T01:26:41.956Z,0
2017-07-21T01:27:43.328Z,0
2017-07-21T01:28:45.368Z,0
2017-07-21T01:29:46.724Z,0
2017-07-21T01:30:48.108Z,0
2017-07-21T01:31:49.484Z,0
2017-07-21T01:32:50.857Z,0
2017-07-21T01:33:52.244Z,0
2017-07-21T01:34:53.618Z,0
2017-07-21T01:35:54.993Z,0
2017-07-21T01:36:56.368Z,0
2017-07-21T01:37:57.746Z,0
2017-07-21T01:38:59.130Z,0
2017-07-21T01:40:00.504Z,0
2017-07-21T01:41:01.888Z,0
2017-07-21T01:42:03.263Z,0
2017-07-21T01:43:04.651Z,0
2017-07-21T01:44:06.039Z,0
2017-07-21T01:45:07.420Z,0
2017-07-21T01:46:08.807Z,0
2017-07-21T01:47:10.185Z,0
2017-07-21T01:48:11.557Z,0
2017-07-21T01:49:12.929Z,0
2017-07-21T01:50:14.303Z,0
2017-07-21T01:51:15.677Z,0
2017-07-21T01:52:17.047Z,0
2017-07-21T01:53:18.426Z,0
2017-07-21T01:54:19.800Z,0
2017-07-21T01:55:21.174Z,0
2017-07-21T01:56:22.543Z,0
2017-07-21T01:57:23.913Z,0
2017-07-21T01:58:25.291Z,0
2017-07-21T01:59:26.660Z,0
2017-07-21T02:00:28.032Z,0
2017-07-21T02:01:29.411Z,0
2017-07-21T02:02:30.783Z,0
2017-07-21T02:03:32.158Z,0
2017-07-21T02:04:33.550Z,0
2017-07-21T02:05:34.896Z,0
2017-07-21T02:06:36.275Z,0
2017-07-21T02:07:37.648Z,0
2017-07-21T02:08:39.888Z,0
2017-07-21T02:09:41.264Z,0
2017-07-21T02:10:42.636Z,0
2017-07-21T02:11:44.004Z,0
2017-07-21T02:12:45.374Z,0
2017-07-21T02:13:46.750Z,0
2017-07-21T02:14:48.125Z,0
2017-07-21T02:15:49.493Z,0
2017-07-21T02:16:50.861Z,0
2017-07-21T02:17:52.778Z,0
2017-07-21T02:18:54.152Z,0
2017-07-21T02:19:55.519Z,0
2017-07-21T02:20:56.891Z,0
2017-07-21T02:21:58.269Z,0
2017-07-21T02:22:59.642Z,0
2017-07-21T02:24:01.013Z,0
2017-07-21T02:25:02.379Z,0
2017-07-21T02:26:03.755Z,0
2017-07-21T02:27:05.130Z,0
2017-07-21T02:28:06.499Z,0
2017-07-21T02:29:07.872Z,0
2017-07-21T02:30:09.248Z,0
2017-07-21T02:31:10.619Z,0
2017-07-21T02:32:11.986Z,0
2017-07-21T02:33:13.356Z,0
2017-07-21T02:34:14.731Z,0
2017-07-21T02:35:16.105Z,0
2017-07-21T02:36:17.474Z,0
2017-07-21T02:37:18.847Z,0
2017-07-21T02:38:20.220Z,0
2017-07-21T02:39:21.587Z,0
2017-07-21T02:40:23.521Z,0
2017-07-21T02:41:24.895Z,0
2017-07-21T02:42:26.267Z,0
2017-07-21T02:43:27.638Z,0
2017-07-21T02:44:29.010Z,0
2017-07-21T02:45:30.384Z,0
2017-07-21T02:46:31.757Z,0
2017-07-21T02:47:33.123Z,0
2017-07-21T02:48:34.501Z,0
2017-07-21T02:49:35.869Z,0
2017-07-21T02:50:37.246Z,0
2017-07-21T02:51:38.615Z,0
2017-07-21T02:52:39.983Z,0
2017-07-21T02:53:41.359Z,0
2017-07-21T02:54:42.732Z,0
2017-07-21T02:55:44.101Z,0
2017-07-21T02:56:45.478Z,0
2017-07-21T02:57:46.853Z,0
2017-07-21T02:58:48.226Z,0
2017-07-21T02:59:49.593Z,0
2017-07-21T03:00:50.962Z,0
2017-07-21T03:01:52.337Z,0
2017-07-21T03:02:54.553Z,0
2017-07-21T03:03:55.921Z,0
2017-07-21T03:04:57.292Z,0
2017-07-21T03:05:58.670Z,0
2017-07-21T03:07:00.047Z,0
2017-07-21T03:08:01.418Z,0
2017-07-21T03:09:02.786Z,0
2017-07-21T03:10:04.163Z,0
2017-07-21T03:11:05.537Z,0
2017-07-21T03:12:06.914Z,0
2017-07-21T03:13:08.289Z,0
2017-07-21T03:14:09.656Z,0
2017-07-21T03:15:11.023Z,0
2017-07-21T03:16:12.399Z,0
2017-07-21T03:17:13.767Z,0
2017-07-21T03:18:15.139Z,0
2017-07-21T03:19:16.508Z,0
2017-07-21T03:20:17.886Z,0
2017-07-21T03:21:19.257Z,0
2017-07-21T03:22:20.623Z,0
2017-07-21T03:23:21.993Z,0
2017-07-21T03:24:23.370Z,0
2017-07-21T03:25:24.746Z,0
2017-07-21T03:26:26.116Z,0
2017-07-21T03:27:27.488Z,0
2017-07-21T03:28:28.878Z,0
2017-07-21T03:29:30.238Z,0
2017-07-21T03:30:31.608Z,0
2017-07-21T03:31:32.979Z,0
2017-07-21T03:32:34.357Z,0
2017-07-21T03:33:35.729Z,0
2017-07-21T03:34:37.102Z,0
2017-07-21T03:35:38.476Z,0
2017-07-21T03:36:39.847Z,0
2017-07-21T03:37:41.223Z,0
2017-07-21T03:38:42.592Z,0
2017-07-21T03:39:43.962Z,0
2017-07-21T03:40:45.921Z,0
2017-07-21T03:41:47.293Z,0
2017-07-21T03:42:48.663Z,0
2017-07-21T03:43:50.033Z,0
2017-07-21T03:44:51.404Z,0
2017-07-21T03:45:52.772Z,0
2017-07-21T03:46:54.151Z,0
2017-07-21T03:47:55.529Z,0
2017-07-21T03:48:56.899Z,0
2017-07-21T03:49:58.271Z,0
2017-07-21T03:50:59.649Z,0
2017-07-21T03:52:01.024Z,0
2017-07-21T03:53:02.392Z,0
2017-07-21T03:54:03.766Z,0
2017-07-21T03:55:05.178Z,0
2017-07-21T03:56:06.558Z,0
2017-07-21T03:57:07.929Z,0
2017-07-21T03:58:09.299Z,0
2017-07-21T03:59:10.674Z,0
2017-07-21T04:00:12.051Z,0
2017-07-21T04:01:13.421Z,0
2017-07-21T04:02:14.793Z,0
2017-07-21T04:03:16.175Z,0
2017-07-21T04:04:17.550Z,0
2017-07-21T04:05:18.919Z,0
2017-07-21T04:06:20.291Z,0
2017-07-21T04:07:21.669Z,0
2017-07-21T04:08:23.046Z,0
2017-07-21T04:09:24.414Z,0
2017-07-21T04:10:25.787Z,0
2017-07-21T04:11:27.701Z,0
2017-07-21T04:12:28.483Z,0
2017-07-21T04:13:29.852Z,0
2017-07-21T04:14:31.225Z,0
2017-07-21T04:15:32.605Z,0
2017-07-21T04:16:33.981Z,0
2017-07-21T04:17:35.351Z,0
2017-07-21T04:18:36.724Z,0
2017-07-21T04:19:38.101Z,0
2017-07-21T04:20:39.477Z,0
2017-07-21T04:21:40.846Z,0
2017-07-21T04:22:42.225Z,0
2017-07-21T04:23:43.602Z,0
2017-07-21T04:24:44.980Z,0
2017-07-21T04:25:46.351Z,0
2017-07-21T04:26:47.722Z,0
2017-07-21T04:27:49.104Z,0
2017-07-21T04:28:50.476Z,0
2017-07-21T04:29:51.847Z,0
2017-07-21T04:30:53.226Z,0
2017-07-21T04:31:54.602Z,0
2017-07-21T04:32:55.977Z,0
2017-07-21T04:33:57.345Z,0
2017-07-21T04:34:58.718Z,0
2017-07-21T04:36:00.096Z,0
2017-07-21T04:37:01.472Z,0
2017-07-21T04:38:02.843Z,0
2017-07-21T04:39:04.221Z,0
2017-07-21T04:40:05.598Z,0
2017-07-21T04:41:06.967Z,0
2017-07-21T04:42:08.339Z,0
2017-07-21T04:43:09.710Z,0
2017-07-21T04:44:11.089Z,0
2017-07-21T04:45:12.472Z,0
2017-07-21T04:46:13.836Z,0
2017-07-21T04:47:15.215Z,0
2017-07-21T04:48:16.589Z,0
2017-07-21T04:49:17.960Z,0
2017-07-21T04:50:19.334Z,0
2017-07-21T04:51:20.711Z,0
2017-07-21T04:52:22.084Z,0
2017-07-21T04:53:23.460Z,0
2017-07-21T04:54:24.837Z,0
2017-07-21T04:55:26.211Z,0
2017-07-21T04:56:27.582Z,0
2017-07-21T04:57:28.952Z,0
2017-07-21T04:58:30.330Z,0
2017-07-21T04:59:31.707Z,0
2017-07-21T05:00:33.080Z,0
2017-07-21T05:01:34.449Z,0
2017-07-21T05:02:35.826Z,0
2017-07-21T05:03:37.218Z,0
2017-07-21T05:04:38.573Z,0
2017-07-21T05:05:39.945Z,0
2017-07-21T05:06:41.324Z,0
2017-07-21T05:07:42.705Z,0
2017-07-21T05:08:44.071Z,0
2017-07-21T05:09:45.443Z,0
2017-07-21T05:10:46.822Z,0
2017-07-21T05:11:48.201Z,0
2017-07-21T05:12:49.568Z,0
2017-07-21T05:13:50.939Z,0
2017-07-21T05:14:52.321Z,0
2017-07-21T05:15:53.695Z,0
2017-07-21T05:16:55.062Z,20
2017-07-21T05:17:56.437Z,20
2017-07-21T05:18:57.818Z,20
2017-07-21T05:19:59.195Z,20
2017-07-21T05:21:00.576Z,20
2017-07-21T05:22:01.942Z,20
2017-07-21T05:23:03.313Z,20
2017-07-21T05:24:04.689Z,25
2017-07-21T05:25:06.064Z,25
2017-07-21T05:26:07.464Z,25
2017-07-21T05:27:08.835Z,25
2017-07-21T05:28:10.217Z,25
2017-07-21T05:29:11.594Z,25
2017-07-21T05:30:12.965Z,25
2017-07-21T05:31:14.335Z,25
2017-07-21T05:32:16.269Z,25
2017-07-21T05:33:17.642Z,25
2017-07-21T05:34:19.014Z,25
2017-07-21T05:35:20.388Z,25
2017-07-21T05:36:21.768Z,25
2017-07-21T05:37:23.144Z,55
2017-07-21T05:38:24.513Z,55
2017-07-21T05:39:25.884Z,55
2017-07-21T05:40:27.265Z,55
2017-07-21T05:41:28.644Z,55
2017-07-21T05:42:30.019Z,55
2017-07-21T05:43:31.395Z,55
2017-07-21T05:44:32.771Z,60
2017-07-21T05:45:34.144Z,60
2017-07-21T05:46:35.514Z,60
2017-07-21T05:47:36.887Z,60
2017-07-21T05:48:38.265Z,60
2017-07-21T05:49:39.643Z,60
2017-07-21T05:50:41.012Z,60
2017-07-21T05:51:42.385Z,60
2017-07-21T05:52:43.760Z,60
2017-07-21T05:53:45.137Z,60
2017-07-21T05:54:46.509Z,60
2017-07-21T05:55:47.883Z,60
2017-07-21T05:56:49.261Z,60
2017-07-21T05:57:50.633Z,60
2017-07-21T05:58:52.010Z,60
2017-07-21T05:59:53.386Z,60
2017-07-21T06:00:54.764Z,60
2017-07-21T06:01:56.136Z,65
2017-07-21T06:02:57.510Z,60
2017-07-21T06:03:58.890Z,60
2017-07-21T06:05:00.268Z,65
2017-07-21T06:06:01.638Z,65
2017-07-21T06:07:03.009Z,65
2017-07-21T06:08:04.385Z,65
2017-07-21T06:09:05.765Z,65
2017-07-21T06:10:07.134Z,65
2017-07-21T06:11:08.508Z,25
2017-07-21T06:12:09.891Z,25
2017-07-21T06:13:11.260Z,25
2017-07-21T06:14:12.634Z,25
2017-07-21T06:15:14.009Z,25
2017-07-21T06:16:15.385Z,25
2017-07-21T06:17:16.758Z,25
2017-07-21T06:18:18.129Z,25
2017-07-21T06:19:19.537Z,25
2017-07-21T06:20:20.909Z,25
2017-07-21T06:21:22.281Z,25
2017-07-21T06:22:23.652Z,25
2017-07-21T06:23:25.030Z,25
2017-07-21T06:24:26.404Z,25
2017-07-21T06:25:27.783Z,25
2017-07-21T06:26:29.154Z,25
2017-07-21T06:27:30.526Z,25
2017-07-21T06:28:31.901Z,25
2017-07-21T06:29:33.270Z,25
2017-07-21T06:30:35.438Z,25
2017-07-21T06:31:36.816Z,25
2017-07-21T06:32:38.191Z,30
2017-07-21T06:33:39.563Z,30
2017-07-21T06:34:40.934Z,30
2017-07-21T06:35:42.311Z,30
2017-07-21T06:36:43.691Z,30
2017-07-21T06:37:45.057Z,30
2017-07-21T06:38:46.429Z,30
2017-07-21T06:39:47.809Z,30
2017-07-21T06:40:49.186Z,30
2017-07-21T06:41:50.559Z,30
2017-07-21T06:42:51.928Z,30
2017-07-21T06:43:53.311Z,30
2017-07-21T06:44:54.680Z,30
2017-07-21T06:45:56.051Z,30
2017-07-21T06:46:57.426Z,30
2017-07-21T06:47:58.804Z,30
2017-07-21T06:49:00.178Z,30
2017-07-21T06:50:01.546Z,30
2017-07-21T06:51:02.918Z,30
2017-07-21T06:52:04.294Z,30
2017-07-21T06:53:05.671Z,30
2017-07-21T06:54:07.040Z,30
2017-07-21T06:55:08.418Z,30
2017-07-21T06:56:09.795Z,30
2017-07-21T06:57:11.170Z,30
2017-07-21T06:58:12.538Z,25
2017-07-21T06:59:13.912Z,25
2017-07-21T07:00:15.291Z,30
2017-07-21T07:01:16.661Z,30
2017-07-21T07:02:18.036Z,30
2017-07-21T07:03:19.414Z,30
2017-07-21T07:04:20.788Z,30
2017-07-21T07:05:22.161Z,30
2017-07-21T07:06:23.531Z,30
2017-07-21T07:07:24.911Z,30
2017-07-21T07:08:26.289Z,30
2017-07-21T07:09:27.661Z,30
2017-07-21T07:10:29.737Z,30
2017-07-21T07:11:31.113Z,30
2017-07-21T07:12:32.485Z,30
2017-07-21T07:13:33.858Z,30
2017-07-21T07:14:35.234Z,30
2017-07-21T07:15:36.609Z,30
2017-07-21T07:16:37.991Z,30
2017-07-21T07:17:39.362Z,30
2017-07-21T07:18:40.732Z,30
2017-07-21T07:19:42.111Z,30
2017-07-21T07:20:44.201Z,30
2017-07-21T07:21:45.574Z,30
2017-07-21T07:22:46.952Z,30
2017-07-21T07:23:48.332Z,30
2017-07-21T07:24:49.709Z,30
2017-07-21T07:25:51.855Z,30
2017-07-21T07:26:53.227Z,30
2017-07-21T07:27:54.603Z,30
2017-07-21T07:28:55.975Z,30
2017-07-21T07:29:57.350Z,30
2017-07-21T07:30:58.723Z,30
2017-07-21T07:32:00.102Z,30
2017-07-21T07:33:01.474Z,30
2017-07-21T07:34:02.853Z,30
2017-07-21T07:35:04.224Z,30
2017-07-21T07:36:05.597Z,30
2017-07-21T07:37:06.973Z,30
2017-07-21T07:38:08.353Z,30
2017-07-21T07:39:09.723Z,30
2017-07-21T07:40:11.095Z,30
2017-07-21T07:41:13.235Z,30
2017-07-21T07:42:14.613Z,30
2017-07-21T07:43:15.990Z,30
2017-07-21T07:44:17.363Z,30
2017-07-21T07:45:18.739Z,30
2017-07-21T07:46:20.115Z,30
2017-07-21T07:47:21.486Z,30
2017-07-21T07:48:22.858Z,30
2017-07-21T07:49:24.232Z,30
2017-07-21T07:50:25.612Z,30
2017-07-21T07:51:26.988Z,30
2017-07-21T07:52:28.361Z,30
2017-07-21T07:53:29.747Z,30
2017-07-21T07:54:31.115Z,30
2017-07-21T07:55:32.485Z,30
2017-07-21T07:56:33.856Z,30
2017-07-21T07:57:35.236Z,30
2017-07-21T07:58:36.614Z,30
2017-07-21T07:59:37.994Z,30
2017-07-21T08:00:39.365Z,30
2017-07-21T08:01:40.737Z,30
2017-07-21T08:02:42.114Z,30
2017-07-21T08:03:43.487Z,30
2017-07-21T08:04:44.859Z,30
2017-07-21T08:05:46.241Z,30
2017-07-21T08:06:47.613Z,30
2017-07-21T08:07:48.983Z,30
2017-07-21T08:08:50.937Z,30
2017-07-21T08:09:52.311Z,30
2017-07-21T08:10:53.686Z,30
2017-07-21T08:11:55.068Z,35
2017-07-21T08:12:56.443Z,35
2017-07-21T08:13:57.817Z,35
2017-07-21T08:14:59.186Z,35
2017-07-21T08:16:00.557Z,35
2017-07-21T08:17:01.936Z,35
2017-07-21T08:18:03.313Z,35
2017-07-21T08:19:04.685Z,30
2017-07-21T08:20:06.060Z,35
2017-07-21T08:21:07.441Z,35
2017-07-21T08:22:08.813Z,35
2017-07-21T08:23:10.182Z,35
2017-07-21T08:24:11.555Z,35
2017-07-21T08:25:12.937Z,35
2017-07-21T08:26:14.315Z,35
2017-07-21T08:27:15.686Z,35
2017-07-21T08:28:17.059Z,35
2017-07-21T08:29:18.438Z,35
2017-07-21T08:30:19.810Z,35
2017-07-21T08:31:21.180Z,35
2017-07-21T08:32:22.555Z,35
2017-07-21T08:33:23.933Z,35
2017-07-21T08:34:25.311Z,35
2017-07-21T08:35:26.682Z,35
2017-07-21T08:36:28.054Z,35
2017-07-21T08:37:29.434Z,35
2017-07-21T08:38:30.810Z,35
2017-07-21T08:39:32.186Z,35
2017-07-21T08:40:33.555Z,35
2017-07-21T08:41:34.934Z,35
2017-07-21T08:42:36.312Z,35
2017-07-21T08:43:37.685Z,35
2017-07-21T08:44:39.062Z,35
2017-07-21T08:45:40.436Z,35
2017-07-21T08:46:41.814Z,35
2017-07-21T08:47:43.183Z,35
2017-07-21T08:48:44.557Z,35
2017-07-21T08:49:45.938Z,35
2017-07-21T08:50:47.315Z,35
2017-07-21T08:51:48.681Z,35
2017-07-21T08:52:50.056Z,35
2017-07-21T08:53:51.434Z,35
2017-07-21T08:54:52.807Z,35
2017-07-21T08:55:54.182Z,35
2017-07-21T08:56:55.555Z,35
2017-07-21T08:57:56.932Z,35
2017-07-21T08:58:58.308Z,35
2017-07-21T08:59:59.677Z,35
2017-07-21T09:01:01.071Z,35
2017-07-21T09:02:02.450Z,35
2017-07-21T09:03:03.823Z,35
2017-07-21T09:04:05.199Z,35
2017-07-21T09:05:06.571Z,35
2017-07-21T09:06:07.957Z,35
2017-07-21T09:07:09.324Z,35
2017-07-21T09:08:10.695Z,35
2017-07-21T09:09:12.072Z,35
2017-07-21T09:10:13.451Z,35
2017-07-21T09:11:14.830Z,35
2017-07-21T09:12:16.205Z,35
2017-07-21T09:13:17.583Z,35
2017-07-21T09:14:18.951Z,35
2017-07-21T09:15:20.322Z,35
2017-07-21T09:16:21.702Z,40
2017-07-21T09:17:23.084Z,40
2017-07-21T09:18:24.459Z,40
2017-07-21T09:19:25.832Z,40
2017-07-21T09:20:27.209Z,40
2017-07-21T09:21:28.585Z,40
2017-07-21T09:22:29.955Z,40
2017-07-21T09:23:31.329Z,40
2017-07-21T09:24:32.713Z,40
2017-07-21T09:25:34.092Z,40
2017-07-21T09:26:35.462Z,40
2017-07-21T09:27:36.835Z,40
2017-07-21T09:28:38.215Z,40
2017-07-21T09:29:39.594Z,40
2017-07-21T09:30:40.965Z,35
2017-07-21T09:31:42.339Z,35
2017-07-21T09:32:43.720Z,40
2017-07-21T09:33:45.094Z,40
2017-07-21T09:34:46.464Z,40
2017-07-21T09:35:47.838Z,40
2017-07-21T09:36:49.215Z,40
2017-07-21T09:37:50.592Z,40
2017-07-21T09:38:51.962Z,40
2017-07-21T09:39:53.342Z,40
2017-07-21T09:40:54.715Z,40
2017-07-21T09:41:56.092Z,40
2017-07-21T09:42:57.461Z,40
2017-07-21T09:43:58.836Z,40
2017-07-21T09:45:00.216Z,40
2017-07-21T09:46:01.589Z,40
2017-07-21T09:47:02.962Z,40
2017-07-21T09:48:04.340Z,40
2017-07-21T09:49:05.717Z,35
2017-07-21T09:50:07.090Z,40
2017-07-21T09:51:08.462Z,40
2017-07-21T09:52:09.841Z,40
2017-07-21T09:53:11.742Z,35
2017-07-21T09:54:13.114Z,40
2017-07-21T09:55:14.486Z,45
2017-07-21T09:56:15.863Z,45
2017-07-21T09:57:17.242Z,45
2017-07-21T09:58:18.620Z,45
2017-07-21T09:59:19.989Z,45
2017-07-21T10:00:21.368Z,45
2017-07-21T10:01:22.748Z,45
2017-07-21T10:02:24.121Z,45
2017-07-21T10:03:25.494Z,50
2017-07-21T10:04:26.875Z,55
2017-07-21T10:05:28.253Z,60
2017-07-21T10:06:29.625Z,60
2017-07-21T10:07:31.002Z,60
2017-07-21T10:08:32.382Z,60
2017-07-21T10:09:33.762Z,55
2017-07-21T10:10:35.132Z,55
2017-07-21T10:11:36.507Z,50
2017-07-21T10:12:37.886Z,45
2017-07-21T10:13:39.261Z,45
2017-07-21T10:14:40.636Z,45
2017-07-21T10:15:42.018Z,45
2017-07-21T10:16:43.392Z,45
2017-07-21T10:17:44.764Z,45
2017-07-21T10:18:46.136Z,45
2017-07-21T10:19:47.519Z,50
2017-07-21T10:20:48.893Z,50
2017-07-21T10:21:50.269Z,50
2017-07-21T10:22:51.648Z,45
2017-07-21T10:23:53.021Z,55
2017-07-21T10:24:54.416Z,55
2017-07-21T10:25:55.769Z,60
2017-07-21T10:26:57.145Z,65
2017-07-21T10:27:58.528Z,70
2017-07-21T10:28:59.904Z,70
2017-07-21T10:30:01.277Z,90
2017-07-21T10:31:02.649Z,95
2017-07-21T10:32:04.030Z,95
2017-07-21T10:33:05.409Z,90
2017-07-21T10:34:06.780Z,90
2017-07-21T10:35:08.156Z,90
2017-07-21T10:36:09.536Z,90
2017-07-21T10:37:10.914Z,100
2017-07-21T10:38:12.286Z,100
2017-07-21T10:39:13.661Z,100
2017-07-21T10:40:15.045Z,95
2017-07-21T10:41:16.418Z,80
2017-07-21T10:42:17.793Z,70
2017-07-21T10:43:19.166Z,55
2017-07-21T10:44:20.548Z,65
2017-07-21T10:45:21.920Z,65
2017-07-21T10:46:23.293Z,60
2017-07-21T10:47:24.670Z,65
2017-07-21T10:48:26.048Z,65
2017-07-21T10:49:27.430Z,60
2017-07-21T10:50:28.800Z,60
2017-07-21T10:51:30.185Z,60
2017-07-21T10:52:31.562Z,60
2017-07-21T10:53:32.936Z,65
2017-07-21T10:54:34.313Z,65
2017-07-21T10:55:35.688Z,70
2017-07-21T10:56:37.067Z,70
2017-07-21T10:57:38.441Z,75
2017-07-21T10:58:39.816Z,70
2017-07-21T10:59:42.184Z,65
2017-07-21T11:00:43.514Z,60
2017-07-21T11:01:44.890Z,60
2017-07-21T11:02:46.266Z,55
2017-07-21T11:03:47.648Z,60
2017-07-21T11:04:49.029Z,60
2017-07-21T11:05:50.405Z,60
2017-07-21T11:06:51.778Z,65
2017-07-21T11:07:53.157Z,75
2017-07-21T11:08:54.537Z,80
2017-07-21T11:09:55.912Z,85
2017-07-21T11:10:57.296Z,100
2017-07-21T11:11:58.679Z,105
2017-07-21T11:13:00.059Z,100
2017-07-21T11:14:01.433Z,100
2017-07-21T11:15:02.807Z,95
2017-07-21T11:16:04.186Z,90
2017-07-21T11:17:05.563Z,90
2017-07-21T11:18:06.937Z,90
2017-07-21T11:19:08.311Z,75
2017-07-21T11:20:09.693Z,70
2017-07-21T11:21:11.070Z,70
2017-07-21T11:22:12.442Z,70
2017-07-21T11:23:13.823Z,70
2017-07-21T11:24:15.205Z,75
2017-07-21T11:25:16.578Z,70
2017-07-21T11:26:17.959Z,75
2017-07-21T11:27:19.343Z,70
2017-07-21T11:28:20.719Z,75
2017-07-21T11:29:22.089Z,75
2017-07-21T11:30:23.466Z,75
2017-07-21T11:31:24.849Z,70
2017-07-21T11:32:26.231Z,75
2017-07-21T11:33:27.605Z,85
2017-07-21T11:34:28.982Z,95
2017-07-21T11:35:30.361Z,95
2017-07-21T11:36:31.754Z,90
2017-07-21T11:37:33.108Z,90
2017-07-21T11:38:34.485Z,100
2017-07-21T11:39:35.865Z,115
2017-07-21T11:40:37.243Z,130
2017-07-21T11:41:38.621Z,140
2017-07-21T11:42:39.999Z,150
2017-07-21T11:43:41.377Z,155
2017-07-21T11:44:42.754Z,155
2017-07-21T11:45:44.128Z,130
2017-07-21T11:46:45.507Z,110
2017-07-21T11:47:46.900Z,90
2017-07-21T11:48:48.273Z,85
2017-07-21T11:49:49.646Z,90
2017-07-21T11:50:51.030Z,100
2017-07-21T11:51:52.409Z,110
2017-07-21T11:52:53.792Z,120
2017-07-21T11:53:55.168Z,110
2017-07-21T11:54:56.547Z,110
2017-07-21T11:55:57.929Z,115
2017-07-21T11:56:59.305Z,105
2017-07-21T11:58:00.687Z,120
2017-07-21T11:59:02.066Z,125
2017-07-21T12:00:03.440Z,135
2017-07-21T12:01:04.824Z,145
2017-07-21T12:02:06.205Z,170
2017-07-21T12:03:07.588Z,180
2017-07-21T12:04:08.968Z,170
2017-07-21T12:05:10.343Z,165
2017-07-21T12:06:11.726Z,175
2017-07-21T12:07:13.111Z,160
2017-07-21T12:08:14.487Z,145
2017-07-21T12:09:15.868Z,150
2017-07-21T12:10:17.251Z,145
2017-07-21T12:11:18.629Z,150
2017-07-21T12:12:20.002Z,160
2017-07-21T12:13:21.377Z,175
2017-07-21T12:14:22.757Z,185
2017-07-21T12:15:24.136Z,195
2017-07-21T12:16:25.513Z,190
2017-07-21T12:17:26.897Z,175
2017-07-21T12:18:28.275Z,160
2017-07-21T12:19:29.648Z,145
2017-07-21T12:20:31.024Z,140
2017-07-21T12:21:32.402Z,140
2017-07-21T12:22:33.784Z,150
2017-07-21T12:23:35.166Z,145
2017-07-21T12:24:36.541Z,155
2017-07-21T12:25:37.922Z,160
2017-07-21T12:26:39.303Z,170
2017-07-21T12:27:40.686Z,150
2017-07-21T12:28:42.066Z,145
2017-07-21T12:29:43.446Z,135
2017-07-21T12:30:44.821Z,125
2017-07-21T12:31:46.198Z,130
2017-07-21T12:32:47.578Z,135
2017-07-21T12:33:48.960Z,145
2017-07-21T12:34:50.337Z,160
2017-07-21T12:35:51.714Z,170
2017-07-21T12:36:53.099Z,185
2017-07-21T12:37:54.486Z,195
2017-07-21T12:38:55.864Z,190
2017-07-21T12:39:57.256Z,195
2017-07-21T12:40:58.647Z,200
2017-07-21T12:42:00.019Z,200
2017-07-21T12:43:01.396Z,200
2017-07-21T12:44:02.780Z,190
2017-07-21T12:45:04.171Z,180
2017-07-21T12:46:05.552Z,175
2017-07-21T12:47:06.940Z,175
2017-07-21T12:48:08.315Z,185
2017-07-21T12:49:09.702Z,205
2017-07-21T12:50:11.085Z,200
2017-07-21T12:51:12.470Z,210
2017-07-21T12:52:13.852Z,215
2017-07-21T12:53:15.237Z,195
2017-07-21T12:54:16.619Z,185
2017-07-21T12:55:18.002Z,175
2017-07-21T12:56:19.379Z,165
2017-07-21T12:57:20.768Z,155
2017-07-21T12:58:22.151Z,150
2017-07-21T12:59:23.527Z,145
2017-07-21T13:00:24.911Z,145
2017-07-21T13:01:26.296Z,160
2017-07-21T13:02:27.672Z,185
2017-07-21T13:03:29.048Z,195
2017-07-21T13:04:30.428Z,180
2017-07-21T13:05:31.819Z,165
2017-07-21T13:06:33.229Z,155
2017-07-21T13:07:34.608Z,140
2017-07-21T13:08:35.979Z,145
2017-07-21T13:09:37.364Z,150
2017-07-21T13:10:38.742Z,160
2017-07-21T13:11:40.118Z,170
2017-07-21T13:12:41.494Z,190
2017-07-21T13:13:42.879Z,215
2017-07-21T13:14:44.254Z,200
2017-07-21T13:15:45.628Z,215
2017-07-21T13:16:47.005Z,225
2017-07-21T13:17:48.389Z,225
2017-07-21T13:18:49.768Z,225
2017-07-21T13:19:51.145Z,230
2017-07-21T13:20:52.524Z,230
2017-07-21T13:21:53.912Z,235
2017-07-21T13:22:55.286Z,230
2017-07-21T13:23:56.662Z,225
2017-07-21T13:24:58.044Z,215
2017-07-21T13:25:59.426Z,195
2017-07-21T13:27:00.809Z,220
2017-07-21T13:28:02.183Z,245
2017-07-21T13:29:03.562Z,275
2017-07-21T13:30:04.940Z,270
2017-07-21T13:31:06.315Z,275
2017-07-21T13:32:07.700Z,275
2017-07-21T13:33:09.085Z,275
2017-07-21T13:34:10.459Z,275
2017-07-21T13:35:11.841Z,315
2017-07-21T13:36:13.229Z,565
2017-07-21T13:37:14.610Z,1025
2017-07-21T13:38:15.988Z,1310
2017-07-21T13:39:17.369Z,1390
2017-07-21T13:40:18.761Z,1425
2017-07-21T13:41:20.142Z,1430
2017-07-21T13:42:21.526Z,1410
2017-07-21T13:43:22.909Z,1425
2017-07-21T13:44:24.289Z,1480
2017-07-21T13:45:25.673Z,1495
2017-07-21T13:46:27.055Z,1520
2017-07-21T13:47:28.432Z,1520
2017-07-21T13:48:29.819Z,265
2017-07-21T13:49:31.202Z,1505
2017-07-21T13:50:32.578Z,235
2017-07-21T13:51:33.958Z,280
2017-07-21T13:52:35.344Z,260
2017-07-21T13:53:36.730Z,300
2017-07-21T13:54:38.108Z,1580
2017-07-21T13:55:39.488Z,1615
2017-07-21T13:56:40.876Z,1580
2017-07-21T13:57:42.261Z,1555
2017-07-21T13:58:43.638Z,1560
2017-07-21T13:59:45.019Z,1545
2017-07-21T14:00:46.410Z,810
2017-07-21T14:01:47.794Z,1505
2017-07-21T14:02:49.174Z,1525
2017-07-21T14:03:50.554Z,1545
2017-07-21T14:04:51.945Z,1420
2017-07-21T14:05:53.336Z,1210
2017-07-21T14:06:54.717Z,345
2017-07-21T14:07:56.100Z,505
2017-07-21T14:08:57.473Z,350
2017-07-21T14:09:58.859Z,305
2017-07-21T14:11:00.245Z,1400
2017-07-21T14:12:01.631Z,1475
2017-07-21T14:13:03.007Z,1445
2017-07-21T14:14:04.396Z,1490
2017-07-21T14:15:05.783Z,1480
2017-07-21T14:16:07.161Z,1480
2017-07-21T14:17:08.547Z,1485
2017-07-21T14:18:09.937Z,1470
2017-07-21T14:19:11.326Z,1475
2017-07-21T14:20:12.703Z,1455
2017-07-21T14:21:14.085Z,1470
2017-07-21T14:22:15.480Z,1415
2017-07-21T14:23:16.866Z,1395
2017-07-21T14:24:18.246Z,395
2017-07-21T14:25:19.629Z,1290
2017-07-21T14:26:21.020Z,1390
2017-07-21T14:27:22.403Z,1405
2017-07-21T14:28:23.784Z,1385
2017-07-21T14:29:25.166Z,1375
2017-07-21T14:30:26.557Z,1355
2017-07-21T14:31:27.944Z,1340
2017-07-21T14:32:29.331Z,1330
2017-07-21T14:33:30.715Z,1315
2017-07-21T14:34:32.103Z,1310
2017-07-21T14:35:33.488Z,1290
2017-07-21T14:36:34.876Z,1285
2017-07-21T14:37:36.258Z,1270
2017-07-21T14:38:37.649Z,1260